createdAt,value
2023-04-15T00:01:29.203Z,20.4
2023-04-15T00:03:12.901Z,20.4
2023-04-15T00:04:56.615Z,20.4
2023-04-15T00:06:40.339Z,20.4
2023-04-15T00:08:24.026Z,20.4
2023-04-15T00:10:07.726Z,20.4
2023-04-15T00:11:51.436Z,20.4
2023-04-15T00:13:35.131Z,20.4
2023-04-15T00:15:18.875Z,20.4
2023-04-15T00:17:02.552Z,20.4
2023-04-15T00:18:46.298Z,20.4
2023-04-15T00:20:29.945Z,20.4
2023-04-15T00:22:13.666Z,20.4
2023-04-15T00:23:57.354Z,20.4
2023-04-15T00:25:41.064Z,20.4
2023-04-15T00:27:24.774Z,20.3
2023-04-15T00:29:08.451Z,20.3
2023-04-15T00:30:52.146Z,20.3
2023-04-15T00:32:35.864Z,20.3
2023-04-15T00:34:19.564Z,20.3
2023-04-15T00:36:03.263Z,20.3
2023-04-15T00:37:46.955Z,20.3
2023-04-15T00:39:30.671Z,20.3
2023-04-15T00:41:14.347Z,20.4
2023-04-15T00:42:58.070Z,20.3
2023-04-15T00:44:42.018Z,20.3
2023-04-15T00:46:25.493Z,20.3
2023-04-15T00:48:09.173Z,20.3
2023-04-15T00:49:52.869Z,20.3
2023-04-15T00:51:36.562Z,20.3
2023-04-15T00:53:20.303Z,20.3
2023-04-15T00:55:03.972Z,20.3
2023-04-15T00:56:47.676Z,20.3
2023-04-15T00:58:31.381Z,20.3
2023-04-15T01:00:15.100Z,20.3
2023-04-15T01:01:58.792Z,20.3
2023-04-15T01:03:42.498Z,20.3
2023-04-15T01:05:26.213Z,20.3
2023-04-15T01:07:09.909Z,20.3
2023-04-15T01:08:53.615Z,20.3
2023-04-15T01:10:37.304Z,20.3
2023-04-15T01:12:21.044Z,20.3
2023-04-15T01:14:04.721Z,20.3
2023-04-15T01:15:48.409Z,20.3
2023-04-15T01:17:32.105Z,20.3
2023-04-15T01:19:15.819Z,20.3
2023-04-15T01:20:59.521Z,20.3
2023-04-15T01:22:43.226Z,20.3
2023-04-15T01:24:26.932Z,20.3
2023-04-15T01:26:10.638Z,20.3
2023-04-15T01:27:54.327Z,20.3
2023-04-15T01:29:38.034Z,20.3
2023-04-15T01:31:21.734Z,20.3
2023-04-15T01:33:05.414Z,20.3
2023-04-15T01:34:49.140Z,20.3
2023-04-15T01:36:32.844Z,20.3
2023-04-15T01:38:16.530Z,20.3
2023-04-15T01:40:00.253Z,20.3
2023-04-15T01:41:43.948Z,20.3
2023-04-15T01:43:27.656Z,20.3
2023-04-15T01:45:11.359Z,20.3
2023-04-15T01:46:55.071Z,20.3
2023-04-15T01:48:38.766Z,20.3
2023-04-15T01:50:22.475Z,20.2
2023-04-15T01:52:06.167Z,20.2
2023-04-15T01:53:49.841Z,20.2
2023-04-15T01:55:33.556Z,20.2
2023-04-15T01:57:17.292Z,20.2
2023-04-15T01:59:01.005Z,20.2
2023-04-15T02:00:44.653Z,20.2
2023-04-15T02:02:28.361Z,20.3
2023-04-15T02:04:12.067Z,20.3
2023-04-15T02:05:55.797Z,20.3
2023-04-15T02:07:39.483Z,20.2
2023-04-15T02:09:23.164Z,20.2
2023-04-15T02:11:06.886Z,20.2
2023-04-15T02:12:50.575Z,20.2
2023-04-15T02:14:34.290Z,20.2
2023-04-15T02:16:17.996Z,20.2
2023-04-15T02:18:01.702Z,20.2
2023-04-15T02:19:45.419Z,20.2
2023-04-15T02:21:29.104Z,20.2
2023-04-15T02:23:12.805Z,20.2
2023-04-15T02:24:56.518Z,20.2
2023-04-15T02:26:40.335Z,20.2
2023-04-15T02:28:23.960Z,20.2
2023-04-15T02:30:07.654Z,20.1
2023-04-15T02:31:51.321Z,20.2
2023-04-15T02:33:35.045Z,20.2
2023-04-15T02:35:18.765Z,20.2
2023-04-15T02:37:02.486Z,20.2
2023-04-15T02:38:46.145Z,20.1
2023-04-15T02:40:29.827Z,20.2
2023-04-15T02:42:13.559Z,20.2
2023-04-15T02:43:57.251Z,20.1
2023-04-15T02:45:40.939Z,20.1
2023-04-15T02:47:24.646Z,20.1
2023-04-15T02:49:08.354Z,20.1
2023-04-15T02:50:52.053Z,20.1
2023-04-15T02:52:35.748Z,20.1
2023-04-15T02:54:19.465Z,20.1
2023-04-15T02:56:03.158Z,20.1
2023-04-15T02:57:46.863Z,20.1
2023-04-15T02:59:30.569Z,20.1
2023-04-15T03:01:14.275Z,20.1
2023-04-15T03:02:58.015Z,20.1
2023-04-15T03:04:41.670Z,20.1
2023-04-15T03:06:25.370Z,20.1
2023-04-15T03:08:09.081Z,20.1
2023-04-15T03:09:52.793Z,20.1
2023-04-15T03:11:36.484Z,20.1
2023-04-15T03:13:20.220Z,20.1
2023-04-15T03:15:03.896Z,20.1
2023-04-15T03:16:47.594Z,20.1
2023-04-15T03:18:31.298Z,20.1
2023-04-15T03:20:14.975Z,20.1
2023-04-15T03:21:58.707Z,20.1
2023-04-15T03:23:42.441Z,20.1
2023-04-15T03:25:26.114Z,20.1
2023-04-15T03:27:09.801Z,20.1
2023-04-15T03:28:53.493Z,20.1
2023-04-15T03:30:37.251Z,20.1
2023-04-15T03:32:20.934Z,20.1
2023-04-15T03:34:04.625Z,20.1
2023-04-15T03:35:48.313Z,20.1
2023-04-15T03:37:32.027Z,20.1
2023-04-15T03:39:15.725Z,20.1
2023-04-15T03:40:59.431Z,20.1
2023-04-15T03:42:43.172Z,20.1
2023-04-15T03:44:26.821Z,20.1
2023-04-15T03:46:10.534Z,20.1
2023-04-15T03:47:54.267Z,20.1
2023-04-15T03:49:37.935Z,20.1
2023-04-15T03:51:21.653Z,20.1
2023-04-15T03:53:05.359Z,20.1
2023-04-15T03:54:49.071Z,20.1
2023-04-15T03:56:32.731Z,20.1
2023-04-15T03:58:16.441Z,20.1
2023-04-15T04:00:00.151Z,20.1
2023-04-15T04:01:43.847Z,20.1
2023-04-15T04:03:27.539Z,20.1
2023-04-15T04:05:11.240Z,20.1
2023-04-15T04:06:54.957Z,20.1
2023-04-15T04:08:38.664Z,20.1
2023-04-15T04:10:22.390Z,20.1
2023-04-15T04:12:06.061Z,20.1
2023-04-15T04:13:49.759Z,20.1
2023-04-15T04:15:33.447Z,20.1
2023-04-15T04:17:17.148Z,20.1
2023-04-15T04:19:00.860Z,20.1
2023-04-15T04:20:44.554Z,20.1
2023-04-15T04:22:28.273Z,20.1
2023-04-15T04:24:12.015Z,20.1
2023-04-15T04:25:55.664Z,20.1
2023-04-15T04:27:39.404Z,20.1
2023-04-15T04:29:23.078Z,20.1
2023-04-15T04:31:06.783Z,20.1
2023-04-15T04:32:50.476Z,20.1
2023-04-15T04:34:34.182Z,20.1
2023-04-15T04:36:17.895Z,20.1
2023-04-15T04:38:01.582Z,20.1
2023-04-15T04:39:45.278Z,20.1
2023-04-15T04:41:28.977Z,20.1
2023-04-15T04:43:12.693Z,20.1
2023-04-15T04:44:56.402Z,20.1
2023-04-15T04:46:40.084Z,20.1
2023-04-15T04:48:23.806Z,20.1
2023-04-15T04:50:07.494Z,20.1
2023-04-15T04:51:51.287Z,20.1
2023-04-15T04:55:18.604Z,20.1
2023-04-15T04:57:02.337Z,20.1
2023-04-15T04:58:46.030Z,20.1
2023-04-15T05:00:29.721Z,20.1
2023-04-15T05:02:13.404Z,20
2023-04-15T05:03:57.166Z,20.1
2023-04-15T05:05:40.836Z,20.1
2023-04-15T05:07:24.527Z,20.1
2023-04-15T05:09:08.236Z,20.1
2023-04-15T05:10:51.942Z,20
2023-04-15T05:12:35.638Z,20
2023-04-15T05:14:19.345Z,20
2023-04-15T05:16:03.033Z,20.1
2023-04-15T05:17:46.754Z,20.1
2023-04-15T05:19:30.472Z,20
2023-04-15T05:21:14.209Z,20
2023-04-15T05:22:57.958Z,20
2023-04-15T05:24:41.557Z,20.1
2023-04-15T05:26:25.259Z,20
2023-04-15T05:28:08.962Z,20
2023-04-15T05:29:52.667Z,20
2023-04-15T05:31:36.370Z,20
2023-04-15T05:33:20.060Z,20
2023-04-15T05:35:03.772Z,20
2023-04-15T05:36:47.446Z,20
2023-04-15T05:38:31.165Z,20
2023-04-15T05:40:14.892Z,20
2023-04-15T05:41:58.600Z,20
2023-04-15T05:43:42.276Z,20
2023-04-15T05:45:25.974Z,20.1
2023-04-15T05:47:09.675Z,20
2023-04-15T05:48:53.380Z,20
2023-04-15T05:50:37.088Z,20
2023-04-15T05:52:20.801Z,20.1
2023-04-15T05:54:04.519Z,20.1
2023-04-15T05:55:48.191Z,20.1
2023-04-15T05:57:31.915Z,20.1
2023-04-15T05:59:15.599Z,20.1
2023-04-15T06:00:59.302Z,20.1
2023-04-15T06:02:43.011Z,20.1
2023-04-15T06:04:26.712Z,20.1
2023-04-15T06:06:10.458Z,20.1
2023-04-15T06:07:54.117Z,20.1
2023-04-15T06:09:37.880Z,20.1
2023-04-15T06:11:21.535Z,20.2
2023-04-15T06:13:05.303Z,20.2
2023-04-15T06:14:48.904Z,20.2
2023-04-15T06:16:32.620Z,20.2
2023-04-15T06:18:16.333Z,20.3
2023-04-15T06:20:00.002Z,20.3
2023-04-15T06:21:43.715Z,20.3
2023-04-15T06:23:27.458Z,20.3
2023-04-15T06:25:11.185Z,20.3
2023-04-15T06:26:54.838Z,20.3
2023-04-15T06:28:38.548Z,20.4
2023-04-15T06:30:22.242Z,20.4
2023-04-15T06:33:49.663Z,20.4
2023-04-15T06:35:33.337Z,20.5
2023-04-15T06:37:17.067Z,20.5
2023-04-15T06:39:00.748Z,20.5
2023-04-15T06:40:44.486Z,20.5
2023-04-15T06:42:28.211Z,20.6
2023-04-15T06:44:11.869Z,20.6
2023-04-15T06:45:55.584Z,20.6
2023-04-15T06:47:39.346Z,20.6
2023-04-15T06:49:22.998Z,20.6
2023-04-15T06:51:06.680Z,21
2023-04-15T06:54:34.095Z,21.6
2023-04-15T06:56:17.793Z,21.8
2023-04-15T06:58:01.458Z,21.9
2023-04-15T06:59:45.217Z,22
2023-04-15T07:01:28.871Z,22.1
2023-04-15T07:03:12.621Z,22.1
2023-04-15T07:04:56.264Z,22.2
2023-04-15T07:06:40.051Z,22.2
2023-04-15T07:08:23.831Z,22.3
2023-04-15T07:10:07.509Z,22.3
2023-04-15T07:11:51.085Z,22.4
2023-04-15T07:13:34.856Z,22.5
2023-04-15T07:15:18.699Z,22.6
2023-04-15T07:17:02.329Z,22.7
2023-04-15T07:18:46.051Z,22.7
2023-04-15T07:20:29.744Z,22.8
2023-04-15T07:22:13.420Z,22.8
2023-04-15T07:23:57.188Z,22.9
2023-04-15T07:25:40.700Z,22.9
2023-04-15T07:27:24.444Z,23
2023-04-15T07:29:08.299Z,23
2023-04-15T07:30:51.825Z,23.1
2023-04-15T07:34:19.388Z,23.1
2023-04-15T07:36:03.036Z,23.2
2023-04-15T07:37:46.702Z,23.4
2023-04-15T07:39:30.547Z,23.6
2023-04-15T07:41:14.117Z,23.8
2023-04-15T07:42:57.743Z,24
2023-04-15T07:44:41.474Z,24.3
2023-04-15T07:46:25.127Z,24.4
2023-04-15T07:48:08.962Z,24.4
2023-04-15T07:49:52.742Z,24.5
2023-04-15T07:51:36.291Z,24.7
2023-04-15T07:55:03.655Z,24.9
2023-04-15T07:56:47.483Z,24.8
2023-04-15T07:58:31.115Z,24.9
2023-04-15T08:00:14.914Z,25.1
2023-04-15T08:01:58.533Z,25.4
2023-04-15T08:03:42.260Z,25.8
2023-04-15T08:05:25.915Z,26.1
2023-04-15T08:07:09.692Z,26.3
2023-04-15T08:08:53.246Z,26.6
2023-04-15T08:10:36.979Z,27.1
2023-04-15T08:12:20.712Z,27.4
2023-04-15T08:14:04.529Z,27.7
2023-04-15T08:15:48.103Z,28
2023-04-15T08:17:31.889Z,28.3
2023-04-15T08:19:15.575Z,28.6
2023-04-15T08:20:59.204Z,28.9
2023-04-15T08:22:43.059Z,29.2
2023-04-15T08:24:26.676Z,29.4
2023-04-15T08:26:10.358Z,29.5
2023-04-15T08:27:54.010Z,29.6
2023-04-15T08:29:37.822Z,29.7
2023-04-15T08:31:21.572Z,29.7
2023-04-15T08:33:05.100Z,29.7
2023-04-15T08:34:48.853Z,29.7
2023-04-15T08:36:32.533Z,29.6
2023-04-15T08:38:16.343Z,29.7
2023-04-15T08:39:59.993Z,29.8
2023-04-15T08:41:43.627Z,29.7
2023-04-15T08:43:27.323Z,29.6
2023-04-15T08:45:11.023Z,29.4
2023-04-15T08:46:54.720Z,29.2
2023-04-15T08:48:38.433Z,29.1
2023-04-15T08:50:22.281Z,29
2023-04-15T08:52:06.000Z,29
2023-04-15T08:53:49.542Z,28.9
2023-04-15T08:55:33.376Z,28.8
2023-04-15T08:57:16.943Z,28.6
2023-04-15T08:59:00.850Z,28.5
2023-04-15T09:00:44.450Z,28.4
2023-04-15T09:02:28.064Z,28.4
2023-04-15T09:04:11.853Z,28.4
2023-04-15T09:05:55.557Z,28.3
2023-04-15T09:07:39.170Z,28.3
2023-04-15T09:09:22.980Z,28.2
2023-04-15T09:11:06.659Z,28.1
2023-04-15T09:12:50.392Z,28
2023-04-15T09:14:34.072Z,27.9
2023-04-15T09:16:17.818Z,27.8
2023-04-15T09:18:01.406Z,27.8
2023-04-15T09:19:45.158Z,27.8
2023-04-15T09:21:28.761Z,27.7
2023-04-15T09:23:12.603Z,27.6
2023-04-15T09:24:56.183Z,27.5
2023-04-15T09:26:39.918Z,27.4
2023-04-15T09:28:23.713Z,27.4
2023-04-15T09:30:07.283Z,27.3
2023-04-15T09:31:50.972Z,27.3
2023-04-15T09:33:34.681Z,27.2
2023-04-15T09:35:18.559Z,27.1
2023-04-15T09:37:02.219Z,27.1
2023-04-15T09:38:45.788Z,27
2023-04-15T09:40:29.629Z,27
2023-04-15T09:42:13.260Z,27
2023-04-15T09:43:57.048Z,27
2023-04-15T09:45:40.598Z,27
2023-04-15T09:47:24.460Z,27
2023-04-15T09:49:08.076Z,27
2023-04-15T09:50:51.710Z,27
2023-04-15T09:52:35.384Z,27.1
2023-04-15T09:54:19.282Z,27.2
2023-04-15T09:56:03.043Z,27.2
2023-04-15T09:57:46.609Z,27.1
2023-04-15T09:59:30.303Z,27.1
2023-04-15T10:01:13.986Z,27.1
2023-04-15T10:02:57.613Z,27.1
2023-04-15T10:04:41.479Z,27.1
2023-04-15T10:06:25.135Z,27.1
2023-04-15T10:08:08.728Z,27.1
2023-04-15T10:09:52.450Z,27.1
2023-04-15T10:11:36.295Z,27.1
2023-04-15T10:13:19.979Z,27.2
2023-04-15T10:15:03.698Z,27.2
2023-04-15T10:16:47.336Z,27.2
2023-04-15T10:18:30.983Z,27.2
2023-04-15T10:20:14.650Z,27.2
2023-04-15T10:21:58.431Z,27.1
2023-04-15T10:23:42.071Z,27.1
2023-04-15T10:25:25.836Z,27.1
2023-04-15T10:27:09.461Z,27.1
2023-04-15T10:28:53.153Z,27.1
2023-04-15T10:30:36.856Z,27.2
2023-04-15T10:32:20.622Z,27.2
2023-04-15T10:34:04.453Z,27.2
2023-04-15T10:35:47.955Z,27.2
2023-04-15T10:37:31.684Z,27.2
2023-04-15T10:39:15.376Z,27.2
2023-04-15T10:40:59.074Z,27.1
2023-04-15T10:42:42.785Z,27.1
2023-04-15T10:44:26.597Z,27.1
2023-04-15T10:46:10.210Z,27.1
2023-04-15T10:47:53.896Z,27.1
2023-04-15T10:49:37.653Z,27.1
2023-04-15T10:51:21.281Z,27.1
2023-04-15T10:53:05.020Z,27
2023-04-15T10:54:48.771Z,27
2023-04-15T10:56:32.396Z,27
2023-04-15T10:58:16.164Z,27
2023-04-15T10:59:59.935Z,27
2023-04-15T11:01:43.496Z,27
2023-04-15T11:03:27.208Z,27
2023-04-15T11:05:10.920Z,27
2023-04-15T11:06:54.629Z,27
2023-04-15T11:08:38.332Z,27
2023-04-15T11:10:22.026Z,27
2023-04-15T11:12:05.710Z,27
2023-04-15T11:13:49.494Z,26.9
2023-04-15T11:15:33.239Z,26.9
2023-04-15T11:17:16.857Z,26.9
2023-04-15T11:19:00.553Z,26.8
2023-04-15T11:20:44.274Z,26.7
2023-04-15T11:22:27.970Z,26.6
2023-04-15T11:24:11.726Z,26.6
2023-04-15T11:25:55.328Z,26.5
2023-04-15T11:27:39.233Z,26.4
2023-04-15T11:29:22.899Z,26.4
2023-04-15T11:31:06.512Z,26.3
2023-04-15T11:32:50.336Z,26.3
2023-04-15T11:34:33.844Z,26.3
2023-04-15T11:36:17.528Z,26.3
2023-04-15T11:38:01.248Z,26.3
2023-04-15T11:39:44.946Z,26.3
2023-04-15T11:41:28.663Z,26.3
2023-04-15T11:43:12.342Z,26.3
2023-04-15T11:44:56.056Z,26.4
2023-04-15T11:46:39.756Z,26.4
2023-04-15T11:48:23.464Z,26.5
2023-04-15T11:50:07.164Z,26.5
2023-04-15T11:51:50.866Z,26.5
2023-04-15T11:53:34.566Z,26.5
2023-04-15T11:55:18.258Z,26.5
2023-04-15T11:57:01.958Z,26.5
2023-04-15T11:58:45.673Z,26.5
2023-04-15T12:00:29.376Z,26.5
2023-04-15T12:02:13.073Z,26.6
2023-04-15T12:03:56.761Z,26.5
2023-04-15T12:05:40.470Z,26.5
2023-04-15T12:07:24.171Z,26.5
2023-04-15T12:09:07.881Z,26.5
2023-04-15T12:10:51.574Z,26.4
2023-04-15T12:12:35.275Z,26.4
2023-04-15T12:14:18.980Z,26.4
2023-04-15T12:16:02.684Z,26.3
2023-04-15T12:17:46.367Z,26.3
2023-04-15T12:19:30.102Z,26.2
2023-04-15T12:21:13.797Z,26.1
2023-04-15T12:22:57.540Z,26.1
2023-04-15T12:24:41.277Z,26
2023-04-15T12:26:24.942Z,25.9
2023-04-15T12:28:08.645Z,25.8
2023-04-15T12:29:52.341Z,25.7
2023-04-15T12:31:36.141Z,25.5
2023-04-15T12:33:19.751Z,25.4
2023-04-15T12:35:03.535Z,25.2
2023-04-15T12:36:47.160Z,25.1
2023-04-15T12:38:30.877Z,25
2023-04-15T12:40:14.566Z,24.9
2023-04-15T12:41:58.258Z,24.8
2023-04-15T12:43:41.964Z,24.7
2023-04-15T12:45:25.724Z,24.5
2023-04-15T12:47:09.452Z,24.5
2023-04-15T12:48:53.045Z,24.4
2023-04-15T12:50:36.746Z,24.3
2023-04-15T12:52:20.436Z,24.3
2023-04-15T12:54:04.141Z,24.2
2023-04-15T12:55:47.886Z,24.2
2023-04-15T12:57:31.569Z,24.1
2023-04-15T12:59:15.255Z,24.1
2023-04-15T13:00:58.962Z,24.1
2023-04-15T13:02:42.664Z,24.1
2023-04-15T13:04:26.360Z,24.1
2023-04-15T13:06:10.064Z,24
2023-04-15T13:07:53.768Z,24
2023-04-15T13:09:37.456Z,23.9
2023-04-15T13:11:21.170Z,23.9
2023-04-15T13:13:04.865Z,23.9
2023-04-15T13:14:48.568Z,23.9
2023-04-15T13:16:32.267Z,23.8
2023-04-15T13:18:15.971Z,23.8
2023-04-15T13:19:59.659Z,23.8
2023-04-15T13:21:43.408Z,23.8
2023-04-15T13:23:27.050Z,23.7
2023-04-15T13:25:10.770Z,23.8
2023-04-15T13:26:54.457Z,23.8
2023-04-15T13:28:38.167Z,23.8
2023-04-15T13:30:21.883Z,23.8
2023-04-15T13:32:05.571Z,23.7
2023-04-15T13:33:49.252Z,23.7
2023-04-15T13:35:32.956Z,23.7
2023-04-15T13:37:16.666Z,23.7
2023-04-15T13:39:00.355Z,23.8
2023-04-15T13:40:44.038Z,23.8
2023-04-15T13:42:27.751Z,23.8
2023-04-15T13:44:11.470Z,23.8
2023-04-15T13:45:55.172Z,23.7
2023-04-15T13:47:38.866Z,23.7
2023-04-15T13:49:22.564Z,23.7
2023-04-15T13:51:06.275Z,23.6
2023-04-15T13:52:49.967Z,23.6
2023-04-15T13:54:33.666Z,23.6
2023-04-15T13:56:17.372Z,23.6
2023-04-15T13:58:01.078Z,23.6
2023-04-15T13:59:44.803Z,23.5
2023-04-15T14:01:28.463Z,23.5
2023-04-15T14:03:12.192Z,23.6
2023-04-15T14:04:55.858Z,23.6
2023-04-15T14:06:39.575Z,23.6
2023-04-15T14:08:23.272Z,23.6
2023-04-15T14:10:06.960Z,23.7
2023-04-15T14:11:50.665Z,23.7
2023-04-15T14:13:34.383Z,23.7
2023-04-15T14:15:18.066Z,23.7
2023-04-15T14:17:01.774Z,23.8
2023-04-15T14:18:45.479Z,23.8
2023-04-15T14:20:29.180Z,23.7
2023-04-15T14:22:12.876Z,23.7
2023-04-15T14:23:56.586Z,23.6
2023-04-15T14:25:40.277Z,23.6
2023-04-15T14:27:23.981Z,23.5
2023-04-15T14:29:07.679Z,23.4
2023-04-15T14:30:51.383Z,23.3
2023-04-15T14:32:35.084Z,23.2
2023-04-15T14:34:18.791Z,23.2
2023-04-15T14:36:02.504Z,23.2
2023-04-15T14:37:46.190Z,23.1
2023-04-15T14:39:30.025Z,23.1
2023-04-15T14:41:13.769Z,23.1
2023-04-15T14:42:57.492Z,23
2023-04-15T14:44:41.204Z,23
2023-04-15T14:46:24.823Z,23
2023-04-15T14:48:08.404Z,23
2023-04-15T14:49:52.113Z,22.9
2023-04-15T14:51:35.812Z,22.9
2023-04-15T14:53:19.530Z,22.9
2023-04-15T14:55:03.235Z,22.9
2023-04-15T14:56:46.918Z,22.9
2023-04-15T14:58:30.641Z,22.9
2023-04-15T15:00:14.344Z,23
2023-04-15T15:01:58.051Z,23
2023-04-15T15:03:41.742Z,23
2023-04-15T15:05:25.434Z,23
2023-04-15T15:07:09.145Z,23.1
2023-04-15T15:08:52.847Z,23.1
2023-04-15T15:10:36.532Z,23.1
2023-04-15T15:12:20.259Z,23.1
2023-04-15T15:14:03.958Z,23.1
2023-04-15T15:15:47.670Z,23
2023-04-15T15:17:31.357Z,23
2023-04-15T15:19:15.069Z,22.9
2023-04-15T15:20:58.773Z,22.9
2023-04-15T15:22:42.472Z,22.8
2023-04-15T15:24:26.149Z,22.8
2023-04-15T15:26:09.871Z,22.8
2023-04-15T15:27:53.580Z,22.8
2023-04-15T15:29:37.289Z,22.8
2023-04-15T15:31:20.988Z,22.8
2023-04-15T15:33:04.698Z,22.8
2023-04-15T15:34:48.400Z,22.9
2023-04-15T15:36:32.108Z,22.9
2023-04-15T15:38:15.807Z,22.9
2023-04-15T15:39:59.503Z,22.9
2023-04-15T15:41:43.226Z,22.9
2023-04-15T15:43:26.951Z,22.9
2023-04-15T15:45:10.626Z,22.9
2023-04-15T15:46:54.321Z,23
2023-04-15T15:48:38.009Z,23
2023-04-15T15:50:21.725Z,23
2023-04-15T15:52:05.436Z,23
2023-04-15T15:53:49.236Z,23
2023-04-15T15:55:32.816Z,23
2023-04-15T15:57:16.534Z,23
2023-04-15T15:59:00.241Z,22.9
2023-04-15T16:00:43.929Z,22.9
2023-04-15T16:02:27.632Z,22.9
2023-04-15T16:04:11.351Z,22.9
2023-04-15T16:05:55.058Z,22.9
2023-04-15T16:07:38.751Z,22.9
2023-04-15T16:09:22.453Z,22.9
2023-04-15T16:11:06.176Z,22.9
2023-04-15T16:12:49.848Z,22.9
2023-04-15T16:14:33.579Z,22.9
2023-04-15T16:16:17.275Z,22.9
2023-04-15T16:18:00.962Z,22.9
2023-04-15T16:19:44.692Z,22.8
2023-04-15T16:21:28.372Z,22.8
2023-04-15T16:23:12.101Z,22.8
2023-04-15T16:24:55.784Z,22.8
2023-04-15T16:26:39.470Z,22.8
2023-04-15T16:28:23.178Z,22.7
2023-04-15T16:30:06.855Z,22.7
2023-04-15T16:31:50.569Z,22.6
2023-04-15T16:33:34.308Z,22.6
2023-04-15T16:35:17.984Z,22.6
2023-04-15T16:37:01.703Z,22.5
2023-04-15T16:38:45.394Z,22.5
2023-04-15T16:40:29.103Z,22.4
2023-04-15T16:42:12.796Z,22.4
2023-04-15T16:43:56.510Z,22.4
2023-04-15T16:45:40.222Z,22.3
2023-04-15T16:47:23.907Z,22.3
2023-04-15T16:49:07.605Z,22.3
2023-04-15T16:50:51.311Z,22.3
2023-04-15T16:52:35.017Z,22.3
2023-04-15T16:54:18.714Z,22.3
2023-04-15T16:56:02.441Z,22.3
2023-04-15T16:57:46.151Z,22.3
2023-04-15T16:59:29.820Z,22.4
2023-04-15T17:01:13.514Z,22.3
2023-04-15T17:02:57.209Z,22.4
2023-04-15T17:04:40.934Z,22.4
2023-04-15T17:06:24.610Z,22.3
2023-04-15T17:08:08.357Z,22.3
2023-04-15T17:09:52.023Z,22.3
2023-04-15T17:11:35.727Z,22.3
2023-04-15T17:13:19.410Z,22.3
2023-04-15T17:15:03.118Z,22.2
2023-04-15T17:16:46.833Z,22.1
2023-04-15T17:18:30.517Z,22.1
2023-04-15T17:20:14.256Z,22.1
2023-04-15T17:21:57.923Z,22
2023-04-15T17:23:41.637Z,22
2023-04-15T17:25:25.388Z,22
2023-04-15T17:27:09.050Z,21.9
2023-04-15T17:28:52.741Z,21.9
2023-04-15T17:30:36.438Z,21.9
2023-04-15T17:32:20.148Z,21.9
2023-04-15T17:34:03.856Z,21.8
2023-04-15T17:35:47.550Z,21.8
2023-04-15T17:37:31.253Z,21.8
2023-04-15T17:39:14.950Z,21.8
2023-04-15T17:40:58.659Z,21.8
2023-04-15T17:42:42.359Z,21.7
2023-04-15T17:44:26.061Z,21.7
2023-04-15T17:46:09.769Z,21.7
2023-04-15T17:47:53.475Z,21.7
2023-04-15T17:49:37.162Z,21.7
2023-04-15T17:51:20.875Z,21.7
2023-04-15T17:53:04.576Z,21.7
2023-04-15T17:54:48.282Z,21.7
2023-04-15T17:58:15.700Z,21.6
2023-04-15T17:59:59.381Z,21.6
2023-04-15T18:01:43.074Z,21.6
2023-04-15T18:03:26.775Z,21.6
2023-04-15T18:05:10.470Z,21.5
2023-04-15T18:06:54.189Z,21.6
2023-04-15T18:08:37.887Z,21.5
2023-04-15T18:10:21.586Z,21.5
2023-04-15T18:12:05.286Z,21.5
2023-04-15T18:13:49.004Z,21.5
2023-04-15T18:15:32.689Z,21.5
2023-04-15T18:17:16.389Z,21.5
2023-04-15T18:19:00.090Z,21.5
2023-04-15T18:20:43.808Z,21.5
2023-04-15T18:22:27.510Z,21.5
2023-04-15T18:24:11.204Z,21.5
2023-04-15T18:25:54.897Z,21.5
2023-04-15T18:27:38.617Z,21.4
2023-04-15T18:29:22.320Z,21.4
2023-04-15T18:31:06.012Z,21.4
2023-04-15T18:32:49.719Z,21.4
2023-04-15T18:34:33.403Z,21.4
2023-04-15T18:36:17.115Z,21.4
2023-04-15T18:38:00.814Z,21.4
2023-04-15T18:39:44.523Z,21.4
2023-04-15T18:41:28.225Z,21.4
2023-04-15T18:43:11.932Z,21.4
2023-04-15T18:44:55.621Z,21.4
2023-04-15T18:46:39.339Z,21.4
2023-04-15T18:48:23.023Z,21.4
2023-04-15T18:50:06.719Z,21.4
2023-04-15T18:51:50.419Z,21.4
2023-04-15T18:53:34.138Z,21.4
2023-04-15T18:55:17.822Z,21.4
2023-04-15T18:57:01.534Z,21.4
2023-04-15T18:58:45.229Z,21.4
2023-04-15T19:00:28.951Z,21.4
2023-04-15T19:02:12.633Z,21.4
2023-04-15T19:03:56.345Z,21.4
2023-04-15T19:05:40.049Z,21.4
2023-04-15T19:07:23.745Z,21.4
2023-04-15T19:09:07.455Z,21.4
2023-04-15T19:10:51.139Z,21.4
2023-04-15T19:12:34.847Z,21.4
2023-04-15T19:14:18.561Z,21.4
2023-04-15T19:16:02.257Z,21.4
2023-04-15T19:17:45.949Z,21.4
2023-04-15T19:19:29.653Z,21.5
2023-04-15T19:21:13.360Z,21.5
2023-04-15T19:22:57.062Z,21.5
2023-04-15T19:24:40.768Z,21.5
2023-04-15T19:26:24.474Z,21.5
2023-04-15T19:28:08.173Z,21.5
2023-04-15T19:29:51.880Z,21.5
2023-04-15T19:31:35.577Z,21.5
2023-04-15T19:33:19.273Z,21.5
2023-04-15T19:35:02.979Z,21.5
2023-04-15T19:36:46.708Z,21.5
2023-04-15T19:38:30.390Z,21.5
2023-04-15T19:40:14.081Z,21.6
2023-04-15T19:41:57.799Z,21.6
2023-04-15T19:43:41.482Z,21.6
2023-04-15T19:45:25.189Z,21.6
2023-04-15T19:47:08.892Z,21.5
2023-04-15T19:48:52.578Z,21.6
2023-04-15T19:50:36.299Z,21.5
2023-04-15T19:52:20.009Z,21.6
2023-04-15T19:54:03.720Z,21.6
2023-04-15T19:55:47.384Z,21.6
2023-04-15T19:57:31.108Z,21.6
2023-04-15T19:59:14.855Z,21.5
2023-04-15T20:00:58.969Z,21.5
2023-04-15T20:02:42.214Z,21.5
2023-04-15T20:04:25.904Z,21.5
2023-04-15T20:06:09.602Z,21.5
2023-04-15T20:07:53.307Z,21.6
2023-04-15T20:09:37.009Z,21.5
2023-04-15T20:11:20.726Z,21.6
2023-04-15T20:13:04.415Z,21.6
2023-04-15T20:14:48.147Z,21.6
2023-04-15T20:16:31.824Z,21.6
2023-04-15T20:18:15.507Z,21.5
2023-04-15T20:19:59.229Z,21.5
2023-04-15T20:21:42.928Z,21.5
2023-04-15T20:23:26.644Z,21.5
2023-04-15T20:25:10.305Z,21.5
2023-04-15T20:26:54.030Z,21.5
2023-04-15T20:28:37.730Z,21.5
2023-04-15T20:30:21.453Z,21.5
2023-04-15T20:32:05.130Z,21.5
2023-04-15T20:33:48.852Z,21.5
2023-04-15T20:35:32.528Z,21.5
2023-04-15T20:37:16.229Z,21.5
2023-04-15T20:38:59.912Z,21.5
2023-04-15T20:40:43.651Z,21.5
2023-04-15T20:42:27.351Z,21.6
2023-04-15T20:44:11.040Z,21.6
2023-04-15T20:45:54.743Z,21.5
2023-04-15T20:47:38.497Z,21.5
2023-04-15T20:49:22.152Z,21.5
2023-04-15T20:51:05.875Z,21.6
2023-04-15T20:52:49.557Z,21.5
2023-04-15T20:54:33.256Z,21.5
2023-04-15T20:56:16.962Z,21.5
2023-04-15T20:58:00.673Z,21.5
2023-04-15T20:59:44.382Z,21.5
2023-04-15T21:01:28.064Z,21.6
2023-04-15T21:03:11.768Z,21.5
2023-04-15T21:04:55.478Z,21.5
2023-04-15T21:06:39.273Z,21.5
2023-04-15T21:08:22.874Z,21.5
2023-04-15T21:10:06.567Z,21.5
2023-04-15T21:11:50.310Z,21.5
2023-04-15T21:13:34.063Z,21.5
2023-04-15T21:15:17.685Z,21.5
2023-04-15T21:17:01.404Z,21.5
2023-04-15T21:18:45.114Z,21.5
2023-04-15T21:20:28.835Z,21.5
2023-04-15T21:22:12.551Z,21.5
2023-04-15T21:23:56.218Z,21.5
2023-04-15T21:25:39.945Z,21.5
2023-04-15T21:27:23.690Z,21.5
2023-04-15T21:29:07.307Z,21.5
2023-04-15T21:30:51.004Z,21.5
2023-04-15T21:32:34.691Z,21.4
2023-04-15T21:34:18.419Z,21.4
2023-04-15T21:36:02.114Z,21.4
2023-04-15T21:37:45.816Z,21.4
2023-04-15T21:39:29.510Z,21.4
2023-04-15T21:41:13.213Z,21.4
2023-04-15T21:42:56.919Z,21.4
2023-04-15T21:44:40.630Z,21.4
2023-04-15T21:46:24.317Z,21.4
2023-04-15T21:48:08.031Z,21.4
2023-04-15T21:49:51.729Z,21.4
2023-04-15T21:51:35.425Z,21.4
2023-04-15T21:53:19.113Z,21.4
2023-04-15T21:55:02.827Z,21.3
2023-04-15T21:56:46.519Z,21.3
2023-04-15T21:58:30.250Z,21.4
2023-04-15T22:00:13.922Z,21.3
2023-04-15T22:01:57.615Z,21.3
2023-04-15T22:03:41.334Z,21.3
2023-04-15T22:05:25.027Z,21.3
2023-04-15T22:07:08.732Z,21.3
2023-04-15T22:08:52.435Z,21.3
2023-04-15T22:10:36.147Z,21.3
2023-04-15T22:12:19.842Z,21.3
2023-04-15T22:14:03.556Z,21.3
2023-04-15T22:15:47.244Z,21.3
2023-04-15T22:17:30.946Z,21.3
2023-04-15T22:19:14.690Z,21.3
2023-04-15T22:20:58.392Z,21.3
2023-04-15T22:22:42.083Z,21.3
2023-04-15T22:24:25.824Z,21.3
2023-04-15T22:26:09.985Z,21.3
2023-04-15T22:27:53.181Z,21.3
2023-04-15T22:29:36.868Z,21.2
2023-04-15T22:31:20.580Z,21.3
2023-04-15T22:33:04.267Z,21.2
2023-04-15T22:34:47.996Z,21.2
2023-04-15T22:36:31.677Z,21.2
2023-04-15T22:38:15.361Z,21.2
2023-04-15T22:39:59.107Z,21.2
2023-04-15T22:41:42.773Z,21.2
2023-04-15T22:43:26.492Z,21.2
2023-04-15T22:45:10.175Z,21.2
2023-04-15T22:46:53.869Z,21.2
2023-04-15T22:48:37.605Z,21.2
2023-04-15T22:50:21.286Z,21.2
2023-04-15T22:52:05.109Z,21.2
2023-04-15T22:53:48.674Z,21.2
2023-04-15T22:55:32.384Z,21.2
2023-04-15T22:57:16.102Z,21.2
2023-04-15T22:58:59.799Z,21.2
2023-04-15T23:00:43.495Z,21.2
2023-04-15T23:02:27.206Z,21.2
2023-04-15T23:04:10.895Z,21.2
2023-04-15T23:05:54.597Z,21.2
2023-04-15T23:07:38.304Z,21.1
2023-04-15T23:09:21.994Z,21.2
2023-04-15T23:11:05.700Z,21.2
2023-04-15T23:12:49.389Z,21.2
2023-04-15T23:14:33.093Z,21.2
2023-04-15T23:16:16.802Z,21.1
2023-04-15T23:18:00.511Z,21.1
2023-04-15T23:19:44.198Z,21.1